sensor_id;sensor_type;location;lat;lon;timestamp;P1;durP1;ratioP1;P2;durP2;ratioP2
68176;SDS011;56478;50.982;7.032;2023-02-26T00:01:13;12.63;;;4.00;;
68176;SDS011;56478;50.982;7.032;2023-02-26T00:03:40;7.45;;;3.85;;
68176;SDS011;56478;50.982;7.032;2023-02-26T00:06:06;6.35;;;3.13;;
68176;SDS011;56478;50.982;7.032;2023-02-26T00:08:31;5.20;;;3.35;;
68176;SDS011;56478;50.982;7.032;2023-02-26T00:10:57;11.25;;;4.05;;
68176;SDS011;56478;50.982;7.032;2023-02-26T00:13:26;5.28;;;3.22;;
68176;SDS011;56478;50.982;7.032;2023-02-26T00:15:57;6.20;;;2.80;;
68176;SDS011;56478;50.982;7.032;2023-02-26T00:18:24;8.65;;;2.90;;
68176;SDS011;56478;50.982;7.032;2023-02-26T00:20:50;3.60;;;2.58;;
68176;SDS011;56478;50.982;7.032;2023-02-26T00:23:16;6.88;;;2.60;;
68176;SDS011;56478;50.982;7.032;2023-02-26T00:25:43;4.55;;;2.40;;
68176;SDS011;56478;50.982;7.032;2023-02-26T00:28:09;3.50;;;2.33;;
68176;SDS011;56478;50.982;7.032;2023-02-26T00:30:35;3.63;;;2.42;;
68176;SDS011;56478;50.982;7.032;2023-02-26T00:33:02;9.80;;;2.40;;
68176;SDS011;56478;50.982;7.032;2023-02-26T00:35:28;6.75;;;2.85;;
68176;SDS011;56478;50.982;7.032;2023-02-26T00:38:01;4.10;;;2.40;;
68176;SDS011;56478;50.982;7.032;2023-02-26T00:43:14;4.72;;;2.10;;
68176;SDS011;56478;50.982;7.032;2023-02-26T00:45:43;7.82;;;2.58;;
68176;SDS011;56478;50.982;7.032;2023-02-26T00:51:05;5.30;;;2.40;;
68176;SDS011;56478;50.982;7.032;2023-02-26T00:53:49;11.20;;;2.50;;
68176;SDS011;56478;50.982;7.032;2023-02-26T00:56:23;5.13;;;2.53;;
68176;SDS011;56478;50.982;7.032;2023-02-26T00:58:49;3.83;;;2.47;;
68176;SDS011;56478;50.982;7.032;2023-02-26T01:01:14;4.05;;;2.60;;
68176;SDS011;56478;50.982;7.032;2023-02-26T01:03:40;4.07;;;2.42;;
68176;SDS011;56478;50.982;7.032;2023-02-26T01:06:09;5.97;;;2.70;;
68176;SDS011;56478;50.982;7.032;2023-02-26T01:08:46;4.70;;;2.30;;
68176;SDS011;56478;50.982;7.032;2023-02-26T01:11:17;5.40;;;2.70;;
68176;SDS011;56478;50.982;7.032;2023-02-26T01:13:43;7.38;;;2.70;;
68176;SDS011;56478;50.982;7.032;2023-02-26T01:16:11;6.65;;;2.38;;
68176;SDS011;56478;50.982;7.032;2023-02-26T01:21:55;4.72;;;2.30;;
68176;SDS011;56478;50.982;7.032;2023-02-26T01:24:27;8.38;;;2.60;;
68176;SDS011;56478;50.982;7.032;2023-02-26T01:26:55;6.00;;;2.58;;
68176;SDS011;56478;50.982;7.032;2023-02-26T01:29:21;5.05;;;2.45;;
68176;SDS011;56478;50.982;7.032;2023-02-26T01:42:45;4.65;;;2.80;;
68176;SDS011;56478;50.982;7.032;2023-02-26T01:45:31;6.15;;;2.58;;
68176;SDS011;56478;50.982;7.032;2023-02-26T01:48:04;6.20;;;2.50;;
68176;SDS011;56478;50.982;7.032;2023-02-26T01:50:42;5.03;;;2.80;;
68176;SDS011;56478;50.982;7.032;2023-02-26T01:55:34;3.88;;;2.45;;
68176;SDS011;56478;50.982;7.032;2023-02-26T01:58:00;3.97;;;2.50;;
68176;SDS011;56478;50.982;7.032;2023-02-26T02:00:27;3.42;;;2.42;;
68176;SDS011;56478;50.982;7.032;2023-02-26T02:02:55;4.30;;;2.50;;
68176;SDS011;56478;50.982;7.032;2023-02-26T02:05:21;3.17;;;2.40;;
68176;SDS011;56478;50.982;7.032;2023-02-26T02:07:52;5.03;;;2.42;;
68176;SDS011;56478;50.982;7.032;2023-02-26T02:10:18;6.68;;;2.72;;
68176;SDS011;56478;50.982;7.032;2023-02-26T02:20:42;6.22;;;2.58;;
68176;SDS011;56478;50.982;7.032;2023-02-26T02:33:52;5.15;;;2.45;;
68176;SDS011;56478;50.982;7.032;2023-02-26T02:36:33;5.70;;;2.80;;
68176;SDS011;56478;50.982;7.032;2023-02-26T02:42:06;6.30;;;2.88;;
68176;SDS011;56478;50.982;7.032;2023-02-26T02:44:39;8.15;;;3.13;;
68176;SDS011;56478;50.982;7.032;2023-02-26T02:47:10;6.18;;;2.90;;
68176;SDS011;56478;50.982;7.032;2023-02-26T02:49:42;6.88;;;2.85;;
68176;SDS011;56478;50.982;7.032;2023-02-26T02:55:38;7.82;;;3.10;;
68176;SDS011;56478;50.982;7.032;2023-02-26T02:58:12;6.78;;;2.97;;
68176;SDS011;56478;50.982;7.032;2023-02-26T03:00:42;4.72;;;2.92;;
68176;SDS011;56478;50.982;7.032;2023-02-26T03:03:17;5.57;;;2.97;;
68176;SDS011;56478;50.982;7.032;2023-02-26T03:06:09;12.20;;;3.08;;
68176;SDS011;56478;50.982;7.032;2023-02-26T03:08:38;5.60;;;3.20;;
68176;SDS011;56478;50.982;7.032;2023-02-26T03:11:06;8.32;;;2.88;;
68176;SDS011;56478;50.982;7.032;2023-02-26T03:13:32;7.38;;;2.80;;
68176;SDS011;56478;50.982;7.032;2023-02-26T03:24:17;9.25;;;3.15;;
68176;SDS011;56478;50.982;7.032;2023-02-26T03:26:53;5.82;;;2.90;;
68176;SDS011;56478;50.982;7.032;2023-02-26T03:32:10;3.80;;;2.70;;
68176;SDS011;56478;50.982;7.032;2023-02-26T03:34:53;3.35;;;2.67;;
68176;SDS011;56478;50.982;7.032;2023-02-26T03:37:36;4.43;;;2.70;;
68176;SDS011;56478;50.982;7.032;2023-02-26T03:40:07;8.38;;;2.70;;
68176;SDS011;56478;50.982;7.032;2023-02-26T03:42:49;5.15;;;2.47;;
68176;SDS011;56478;50.982;7.032;2023-02-26T03:45:21;8.18;;;2.60;;
68176;SDS011;56478;50.982;7.032;2023-02-26T03:47:50;6.40;;;2.55;;
68176;SDS011;56478;50.982;7.032;2023-02-26T03:50:26;4.30;;;2.50;;
68176;SDS011;56478;50.982;7.032;2023-02-26T03:52:56;3.60;;;2.17;;
68176;SDS011;56478;50.982;7.032;2023-02-26T03:55:30;2.88;;;2.33;;
68176;SDS011;56478;50.982;7.032;2023-02-26T03:58:02;2.70;;;2.20;;
68176;SDS011;56478;50.982;7.032;2023-02-26T04:00:28;2.60;;;2.22;;
68176;SDS011;56478;50.982;7.032;2023-02-26T04:03:01;3.10;;;2.30;;
68176;SDS011;56478;50.982;7.032;2023-02-26T04:05:48;3.00;;;1.70;;
68176;SDS011;56478;50.982;7.032;2023-02-26T04:08:16;2.08;;;1.83;;
68176;SDS011;56478;50.982;7.032;2023-02-26T04:10:46;3.10;;;2.35;;
68176;SDS011;56478;50.982;7.032;2023-02-26T04:13:18;2.10;;;1.90;;
68176;SDS011;56478;50.982;7.032;2023-02-26T04:15:44;2.00;;;1.83;;
68176;SDS011;56478;50.982;7.032;2023-02-26T04:18:09;7.93;;;2.05;;
68176;SDS011;56478;50.982;7.032;2023-02-26T04:20:35;2.13;;;1.63;;
68176;SDS011;56478;50.982;7.032;2023-02-26T04:23:00;2.38;;;1.77;;
68176;SDS011;56478;50.982;7.032;2023-02-26T04:25:26;3.28;;;2.15;;
68176;SDS011;56478;50.982;7.032;2023-02-26T04:27:52;2.78;;;2.10;;
68176;SDS011;56478;50.982;7.032;2023-02-26T04:30:17;3.22;;;1.77;;
68176;SDS011;56478;50.982;7.032;2023-02-26T04:32:43;3.15;;;1.98;;
68176;SDS011;56478;50.982;7.032;2023-02-26T04:35:08;3.33;;;1.73;;
68176;SDS011;56478;50.982;7.032;2023-02-26T04:37:34;1.83;;;1.70;;
68176;SDS011;56478;50.982;7.032;2023-02-26T04:40:00;4.07;;;1.88;;
68176;SDS011;56478;50.982;7.032;2023-02-26T04:42:25;2.55;;;1.83;;
68176;SDS011;56478;50.982;7.032;2023-02-26T04:44:51;2.75;;;2.20;;
68176;SDS011;56478;50.982;7.032;2023-02-26T04:47:16;4.03;;;1.85;;
68176;SDS011;56478;50.982;7.032;2023-02-26T04:49:42;4.70;;;1.90;;
68176;SDS011;56478;50.982;7.032;2023-02-26T04:52:07;2.97;;;1.85;;
68176;SDS011;56478;50.982;7.032;2023-02-26T04:54:33;4.15;;;1.98;;
68176;SDS011;56478;50.982;7.032;2023-02-26T04:56:59;3.47;;;1.70;;
68176;SDS011;56478;50.982;7.032;2023-02-26T04:59:24;5.95;;;2.00;;
68176;SDS011;56478;50.982;7.032;2023-02-26T05:01:50;3.90;;;1.83;;
68176;SDS011;56478;50.982;7.032;2023-02-26T05:04:16;3.97;;;1.90;;
68176;SDS011;56478;50.982;7.032;2023-02-26T05:06:42;2.33;;;1.85;;
68176;SDS011;56478;50.982;7.032;2023-02-26T05:09:07;4.35;;;1.90;;
68176;SDS011;56478;50.982;7.032;2023-02-26T05:11:33;4.78;;;1.92;;
68176;SDS011;56478;50.982;7.032;2023-02-26T05:13:58;2.35;;;1.77;;
68176;SDS011;56478;50.982;7.032;2023-02-26T05:16:24;2.38;;;1.70;;
68176;SDS011;56478;50.982;7.032;2023-02-26T05:18:49;4.50;;;1.80;;
68176;SDS011;56478;50.982;7.032;2023-02-26T05:21:15;4.40;;;1.90;;
68176;SDS011;56478;50.982;7.032;2023-02-26T05:23:41;3.90;;;1.95;;
68176;SDS011;56478;50.982;7.032;2023-02-26T05:26:06;3.90;;;1.80;;
68176;SDS011;56478;50.982;7.032;2023-02-26T05:28:32;2.15;;;1.70;;
68176;SDS011;56478;50.982;7.032;2023-02-26T05:30:58;5.22;;;2.00;;
68176;SDS011;56478;50.982;7.032;2023-02-26T05:33:23;1.85;;;1.55;;
68176;SDS011;56478;50.982;7.032;2023-02-26T05:35:49;4.10;;;1.77;;
68176;SDS011;56478;50.982;7.032;2023-02-26T05:38:15;2.75;;;1.60;;
68176;SDS011;56478;50.982;7.032;2023-02-26T05:40:41;3.58;;;1.80;;
68176;SDS011;56478;50.982;7.032;2023-02-26T05:43:06;2.50;;;1.58;;
68176;SDS011;56478;50.982;7.032;2023-02-26T05:45:32;2.40;;;1.58;;
68176;SDS011;56478;50.982;7.032;2023-02-26T05:47:58;1.65;;;1.20;;
68176;SDS011;56478;50.982;7.032;2023-02-26T05:50:24;4.13;;;1.60;;
68176;SDS011;56478;50.982;7.032;2023-02-26T05:52:50;2.33;;;1.52;;
68176;SDS011;56478;50.982;7.032;2023-02-26T05:55:16;2.08;;;1.50;;
68176;SDS011;56478;50.982;7.032;2023-02-26T05:57:42;4.57;;;1.60;;
68176;SDS011;56478;50.982;7.032;2023-02-26T06:00:07;1.70;;;1.60;;
68176;SDS011;56478;50.982;7.032;2023-02-26T06:02:34;2.83;;;1.80;;
68176;SDS011;56478;50.982;7.032;2023-02-26T06:04:59;4.72;;;2.00;;
68176;SDS011;56478;50.982;7.032;2023-02-26T06:07:25;3.55;;;2.00;;
68176;SDS011;56478;50.982;7.032;2023-02-26T06:09:51;6.07;;;1.60;;
68176;SDS011;56478;50.982;7.032;2023-02-26T06:12:16;7.30;;;2.45;;
68176;SDS011;56478;50.982;7.032;2023-02-26T06:14:42;4.85;;;1.83;;
68176;SDS011;56478;50.982;7.032;2023-02-26T06:17:08;4.82;;;1.65;;
68176;SDS011;56478;50.982;7.032;2023-02-26T06:19:33;7.50;;;2.03;;
68176;SDS011;56478;50.982;7.032;2023-02-26T06:21:59;3.63;;;1.67;;
68176;SDS011;56478;50.982;7.032;2023-02-26T06:24:24;2.42;;;1.70;;
68176;SDS011;56478;50.982;7.032;2023-02-26T06:26:50;1.75;;;1.48;;
68176;SDS011;56478;50.982;7.032;2023-02-26T06:29:16;5.25;;;1.80;;
68176;SDS011;56478;50.982;7.032;2023-02-26T06:31:45;5.05;;;2.10;;
68176;SDS011;56478;50.982;7.032;2023-02-26T06:34:11;2.70;;;1.73;;
68176;SDS011;56478;50.982;7.032;2023-02-26T06:36:37;3.42;;;1.75;;
68176;SDS011;56478;50.982;7.032;2023-02-26T06:39:02;4.10;;;1.98;;
68176;SDS011;56478;50.982;7.032;2023-02-26T06:41:28;3.13;;;2.00;;
68176;SDS011;56478;50.982;7.032;2023-02-26T06:43:54;2.58;;;1.98;;
68176;SDS011;56478;50.982;7.032;2023-02-26T06:46:19;3.00;;;1.92;;
68176;SDS011;56478;50.982;7.032;2023-02-26T06:48:45;4.93;;;1.92;;
68176;SDS011;56478;50.982;7.032;2023-02-26T06:51:11;3.35;;;1.90;;
68176;SDS011;56478;50.982;7.032;2023-02-26T06:53:36;3.17;;;2.13;;
68176;SDS011;56478;50.982;7.032;2023-02-26T06:56:02;5.03;;;2.20;;
68176;SDS011;56478;50.982;7.032;2023-02-26T06:58:28;2.60;;;2.40;;
68176;SDS011;56478;50.982;7.032;2023-02-26T07:00:53;4.05;;;2.50;;
68176;SDS011;56478;50.982;7.032;2023-02-26T07:03:19;3.88;;;2.38;;
68176;SDS011;56478;50.982;7.032;2023-02-26T07:05:45;3.17;;;2.30;;
68176;SDS011;56478;50.982;7.032;2023-02-26T07:08:11;2.60;;;2.33;;
68176;SDS011;56478;50.982;7.032;2023-02-26T07:10:37;3.85;;;2.90;;
68176;SDS011;56478;50.982;7.032;2023-02-26T07:13:04;4.75;;;2.70;;
68176;SDS011;56478;50.982;7.032;2023-02-26T07:15:30;2.50;;;2.17;;
68176;SDS011;56478;50.982;7.032;2023-02-26T07:17:56;3.67;;;2.70;;
68176;SDS011;56478;50.982;7.032;2023-02-26T07:20:24;4.47;;;2.60;;
68176;SDS011;56478;50.982;7.032;2023-02-26T07:22:50;4.93;;;2.58;;
68176;SDS011;56478;50.982;7.032;2023-02-26T07:25:16;3.47;;;2.58;;
68176;SDS011;56478;50.982;7.032;2023-02-26T07:27:41;2.70;;;2.50;;
68176;SDS011;56478;50.982;7.032;2023-02-26T07:30:07;6.45;;;2.80;;
68176;SDS011;56478;50.982;7.032;2023-02-26T07:32:33;2.80;;;2.45;;
68176;SDS011;56478;50.982;7.032;2023-02-26T07:34:59;3.22;;;2.63;;
68176;SDS011;56478;50.982;7.032;2023-02-26T07:37:25;4.65;;;2.85;;
68176;SDS011;56478;50.982;7.032;2023-02-26T07:39:50;3.03;;;2.63;;
68176;SDS011;56478;50.982;7.032;2023-02-26T07:42:16;4.18;;;2.42;;
68176;SDS011;56478;50.982;7.032;2023-02-26T07:44:42;3.15;;;2.40;;
68176;SDS011;56478;50.982;7.032;2023-02-26T07:47:09;2.60;;;2.33;;
68176;SDS011;56478;50.982;7.032;2023-02-26T07:49:35;2.35;;;2.15;;
68176;SDS011;56478;50.982;7.032;2023-02-26T07:52:01;2.42;;;2.22;;
68176;SDS011;56478;50.982;7.032;2023-02-26T07:54:27;4.57;;;2.63;;
68176;SDS011;56478;50.982;7.032;2023-02-26T07:56:52;4.95;;;2.67;;
68176;SDS011;56478;50.982;7.032;2023-02-26T07:59:18;2.90;;;2.33;;
68176;SDS011;56478;50.982;7.032;2023-02-26T08:01:44;3.80;;;2.10;;
68176;SDS011;56478;50.982;7.032;2023-02-26T08:04:09;3.15;;;2.30;;
68176;SDS011;56478;50.982;7.032;2023-02-26T08:06:35;3.30;;;2.33;;
68176;SDS011;56478;50.982;7.032;2023-02-26T08:09:02;3.13;;;2.17;;
68176;SDS011;56478;50.982;7.032;2023-02-26T08:11:28;4.22;;;2.40;;
68176;SDS011;56478;50.982;7.032;2023-02-26T08:13:54;2.55;;;2.28;;
68176;SDS011;56478;50.982;7.032;2023-02-26T08:16:19;2.30;;;2.10;;
68176;SDS011;56478;50.982;7.032;2023-02-26T08:18:45;2.58;;;2.25;;
68176;SDS011;56478;50.982;7.032;2023-02-26T08:21:11;2.55;;;2.20;;
68176;SDS011;56478;50.982;7.032;2023-02-26T08:23:36;2.80;;;2.30;;
68176;SDS011;56478;50.982;7.032;2023-02-26T08:26:04;2.75;;;2.20;;
68176;SDS011;56478;50.982;7.032;2023-02-26T08:28:32;2.58;;;2.25;;
68176;SDS011;56478;50.982;7.032;2023-02-26T08:30:58;5.82;;;2.50;;
68176;SDS011;56478;50.982;7.032;2023-02-26T08:33:23;4.03;;;2.25;;
68176;SDS011;56478;50.982;7.032;2023-02-26T08:35:50;2.22;;;2.03;;
68176;SDS011;56478;50.982;7.032;2023-02-26T08:38:15;4.30;;;2.40;;
68176;SDS011;56478;50.982;7.032;2023-02-26T08:40:41;3.60;;;2.17;;
68176;SDS011;56478;50.982;7.032;2023-02-26T08:43:07;2.83;;;2.20;;
68176;SDS011;56478;50.982;7.032;2023-02-26T08:45:33;2.20;;;1.98;;
68176;SDS011;56478;50.982;7.032;2023-02-26T08:47:59;4.32;;;2.15;;
68176;SDS011;56478;50.982;7.032;2023-02-26T08:50:25;2.40;;;1.88;;
68176;SDS011;56478;50.982;7.032;2023-02-26T08:52:52;2.10;;;2.00;;
68176;SDS011;56478;50.982;7.032;2023-02-26T08:55:17;2.30;;;1.92;;
68176;SDS011;56478;50.982;7.032;2023-02-26T08:57:43;2.30;;;2.05;;
68176;SDS011;56478;50.982;7.032;2023-02-26T09:00:09;3.85;;;2.20;;
68176;SDS011;56478;50.982;7.032;2023-02-26T09:02:35;2.80;;;2.05;;
68176;SDS011;56478;50.982;7.032;2023-02-26T09:05:02;2.45;;;1.98;;
68176;SDS011;56478;50.982;7.032;2023-02-26T09:07:28;2.83;;;2.20;;
68176;SDS011;56478;50.982;7.032;2023-02-26T09:09:54;2.92;;;2.00;;
68176;SDS011;56478;50.982;7.032;2023-02-26T09:12:19;2.65;;;1.80;;
68176;SDS011;56478;50.982;7.032;2023-02-26T09:14:45;3.22;;;1.90;;
68176;SDS011;56478;50.982;7.032;2023-02-26T09:17:11;4.20;;;1.88;;
68176;SDS011;56478;50.982;7.032;2023-02-26T09:19:36;3.70;;;1.90;;
68176;SDS011;56478;50.982;7.032;2023-02-26T09:22:03;1.60;;;1.50;;
68176;SDS011;56478;50.982;7.032;2023-02-26T09:24:28;2.00;;;1.80;;
68176;SDS011;56478;50.982;7.032;2023-02-26T09:26:54;1.60;;;1.50;;
68176;SDS011;56478;50.982;7.032;2023-02-26T09:29:19;1.95;;;1.85;;
68176;SDS011;56478;50.982;7.032;2023-02-26T09:31:45;3.08;;;1.90;;
68176;SDS011;56478;50.982;7.032;2023-02-26T09:34:11;1.95;;;1.60;;
68176;SDS011;56478;50.982;7.032;2023-02-26T09:36:38;1.88;;;1.60;;
68176;SDS011;56478;50.982;7.032;2023-02-26T09:39:04;2.88;;;1.70;;
68176;SDS011;56478;50.982;7.032;2023-02-26T09:41:35;1.70;;;1.25;;
68176;SDS011;56478;50.982;7.032;2023-02-26T09:44:15;1.92;;;1.70;;
68176;SDS011;56478;50.982;7.032;2023-02-26T09:51:58;4.00;;;1.70;;
68176;SDS011;56478;50.982;7.032;2023-02-26T09:54:29;4.40;;;1.80;;
68176;SDS011;56478;50.982;7.032;2023-02-26T09:56:58;1.85;;;1.60;;
68176;SDS011;56478;50.982;7.032;2023-02-26T09:59:26;1.55;;;1.40;;
68176;SDS011;56478;50.982;7.032;2023-02-26T10:12:16;2.47;;;1.50;;
68176;SDS011;56478;50.982;7.032;2023-02-26T10:15:07;2.10;;;1.40;;
68176;SDS011;56478;50.982;7.032;2023-02-26T10:20:26;1.60;;;1.50;;
68176;SDS011;56478;50.982;7.032;2023-02-26T10:31:02;1.70;;;1.60;;
68176;SDS011;56478;50.982;7.032;2023-02-26T10:42:10;1.55;;;1.35;;
68176;SDS011;56478;50.982;7.032;2023-02-26T10:50:10;1.40;;;1.35;;
68176;SDS011;56478;50.982;7.032;2023-02-26T10:52:38;1.88;;;1.40;;
68176;SDS011;56478;50.982;7.032;2023-02-26T10:57:59;1.30;;;1.20;;
68176;SDS011;56478;50.982;7.032;2023-02-26T11:00:29;1.13;;;1.13;;
68176;SDS011;56478;50.982;7.032;2023-02-26T11:02:55;1.35;;;1.10;;
68176;SDS011;56478;50.982;7.032;2023-02-26T11:05:26;1.35;;;1.23;;
68176;SDS011;56478;50.982;7.032;2023-02-26T11:07:55;1.00;;;1.00;;
68176;SDS011;56478;50.982;7.032;2023-02-26T11:10:41;1.17;;;1.17;;
68176;SDS011;56478;50.982;7.032;2023-02-26T11:13:12;1.42;;;1.30;;
68176;SDS011;56478;50.982;7.032;2023-02-26T11:15:38;1.05;;;1.05;;
68176;SDS011;56478;50.982;7.032;2023-02-26T11:18:05;1.92;;;1.20;;
68176;SDS011;56478;50.982;7.032;2023-02-26T11:20:39;2.55;;;1.20;;
68176;SDS011;56478;50.982;7.032;2023-02-26T11:23:16;2.88;;;1.60;;
68176;SDS011;56478;50.982;7.032;2023-02-26T11:25:44;2.42;;;1.55;;
68176;SDS011;56478;50.982;7.032;2023-02-26T11:30:42;1.17;;;1.15;;
68176;SDS011;56478;50.982;7.032;2023-02-26T11:35:40;1.90;;;1.30;;
68176;SDS011;56478;50.982;7.032;2023-02-26T11:38:05;1.40;;;1.30;;
68176;SDS011;56478;50.982;7.032;2023-02-26T11:40:42;2.40;;;1.13;;
68176;SDS011;56478;50.982;7.032;2023-02-26T11:43:16;1.15;;;1.10;;
68176;SDS011;56478;50.982;7.032;2023-02-26T11:45:45;1.00;;;0.93;;
68176;SDS011;56478;50.982;7.032;2023-02-26T11:48:18;2.33;;;1.08;;
68176;SDS011;56478;50.982;7.032;2023-02-26T11:50:51;1.58;;;1.20;;
68176;SDS011;56478;50.982;7.032;2023-02-26T11:53:31;1.23;;;1.13;;
68176;SDS011;56478;50.982;7.032;2023-02-26T11:56:03;1.20;;;1.05;;
68176;SDS011;56478;50.982;7.032;2023-02-26T11:58:36;1.20;;;1.10;;
68176;SDS011;56478;50.982;7.032;2023-02-26T12:01:03;1.55;;;1.20;;
68176;SDS011;56478;50.982;7.032;2023-02-26T12:03:33;2.55;;;1.15;;
68176;SDS011;56478;50.982;7.032;2023-02-26T12:06:04;1.13;;;1.10;;
68176;SDS011;56478;50.982;7.032;2023-02-26T12:08:31;1.65;;;1.40;;
68176;SDS011;56478;50.982;7.032;2023-02-26T12:30:19;1.48;;;1.08;;
68176;SDS011;56478;50.982;7.032;2023-02-26T12:38:51;2.70;;;1.30;;
68176;SDS011;56478;50.982;7.032;2023-02-26T12:43:57;1.15;;;1.10;;
68176;SDS011;56478;50.982;7.032;2023-02-26T12:46:33;1.38;;;1.27;;
68176;SDS011;56478;50.982;7.032;2023-02-26T12:52:52;1.67;;;1.27;;
68176;SDS011;56478;50.982;7.032;2023-02-26T13:03:16;1.40;;;1.30;;
68176;SDS011;56478;50.982;7.032;2023-02-26T13:05:53;2.10;;;1.40;;
68176;SDS011;56478;50.982;7.032;2023-02-26T13:32:55;1.55;;;1.10;;
68176;SDS011;56478;50.982;7.032;2023-02-26T13:35:28;1.30;;;1.20;;
68176;SDS011;56478;50.982;7.032;2023-02-26T13:38:04;1.60;;;1.23;;
68176;SDS011;56478;50.982;7.032;2023-02-26T13:41:11;1.30;;;1.20;;
68176;SDS011;56478;50.982;7.032;2023-02-26T13:43:45;1.90;;;1.30;;
68176;SDS011;56478;50.982;7.032;2023-02-26T13:49:22;1.40;;;1.30;;
68176;SDS011;56478;50.982;7.032;2023-02-26T13:51:53;1.27;;;1.20;;
68176;SDS011;56478;50.982;7.032;2023-02-26T13:57:04;2.80;;;1.30;;
68176;SDS011;56478;50.982;7.032;2023-02-26T13:59:59;1.20;;;1.20;;
68176;SDS011;56478;50.982;7.032;2023-02-26T14:02:47;1.35;;;1.25;;
68176;SDS011;56478;50.982;7.032;2023-02-26T14:10:54;1.45;;;1.27;;
68176;SDS011;56478;50.982;7.032;2023-02-26T14:13:37;1.52;;;1.30;;
68176;SDS011;56478;50.982;7.032;2023-02-26T14:16:11;1.70;;;1.60;;
68176;SDS011;56478;50.982;7.032;2023-02-26T14:24:01;2.03;;;1.30;;
68176;SDS011;56478;50.982;7.032;2023-02-26T14:26:31;2.90;;;1.20;;
68176;SDS011;56478;50.982;7.032;2023-02-26T14:34:14;1.95;;;1.08;;
68176;SDS011;56478;50.982;7.032;2023-02-26T14:36:53;1.13;;;1.10;;
68176;SDS011;56478;50.982;7.032;2023-02-26T14:39:35;2.45;;;1.60;;
68176;SDS011;56478;50.982;7.032;2023-02-26T14:42:10;1.50;;;1.40;;
68176;SDS011;56478;50.982;7.032;2023-02-26T14:44:45;1.25;;;1.20;;
68176;SDS011;56478;50.982;7.032;2023-02-26T14:47:14;1.52;;;1.40;;
68176;SDS011;56478;50.982;7.032;2023-02-26T14:49:41;1.42;;;1.30;;
68176;SDS011;56478;50.982;7.032;2023-02-26T14:58:21;1.40;;;1.30;;
68176;SDS011;56478;50.982;7.032;2023-02-26T15:03:57;3.45;;;1.10;;
68176;SDS011;56478;50.982;7.032;2023-02-26T15:11:58;1.20;;;1.10;;
68176;SDS011;56478;50.982;7.032;2023-02-26T15:25:43;2.88;;;1.30;;
68176;SDS011;56478;50.982;7.032;2023-02-26T15:28:14;1.63;;;1.30;;
68176;SDS011;56478;50.982;7.032;2023-02-26T15:30:54;2.90;;;1.30;;
68176;SDS011;56478;50.982;7.032;2023-02-26T15:33:22;1.50;;;1.40;;
68176;SDS011;56478;50.982;7.032;2023-02-26T15:35:50;1.17;;;1.15;;
68176;SDS011;56478;50.982;7.032;2023-02-26T15:38:17;1.30;;;1.20;;
68176;SDS011;56478;50.982;7.032;2023-02-26T15:40:43;1.95;;;1.50;;
68176;SDS011;56478;50.982;7.032;2023-02-26T15:43:11;1.20;;;1.20;;
68176;SDS011;56478;50.982;7.032;2023-02-26T15:45:40;1.52;;;1.20;;
68176;SDS011;56478;50.982;7.032;2023-02-26T15:48:11;1.25;;;1.20;;
68176;SDS011;56478;50.982;7.032;2023-02-26T15:50:39;2.58;;;1.27;;
68176;SDS011;56478;50.982;7.032;2023-02-26T15:53:07;1.13;;;1.13;;
68176;SDS011;56478;50.982;7.032;2023-02-26T15:55:48;1.30;;;1.20;;
68176;SDS011;56478;50.982;7.032;2023-02-26T15:58:21;1.55;;;1.45;;
68176;SDS011;56478;50.982;7.032;2023-02-26T16:00:54;1.20;;;1.20;;
68176;SDS011;56478;50.982;7.032;2023-02-26T16:05:55;1.80;;;1.67;;
68176;SDS011;56478;50.982;7.032;2023-02-26T16:08:22;1.50;;;1.40;;
68176;SDS011;56478;50.982;7.032;2023-02-26T16:10:48;1.45;;;1.33;;
68176;SDS011;56478;50.982;7.032;2023-02-26T16:13:20;2.78;;;1.23;;
68176;SDS011;56478;50.982;7.032;2023-02-26T16:15:52;1.48;;;1.38;;
68176;SDS011;56478;50.982;7.032;2023-02-26T16:18:22;1.90;;;1.70;;
68176;SDS011;56478;50.982;7.032;2023-02-26T16:20:51;2.55;;;1.70;;
68176;SDS011;56478;50.982;7.032;2023-02-26T16:23:23;2.97;;;1.80;;
68176;SDS011;56478;50.982;7.032;2023-02-26T16:26:01;4.22;;;1.70;;
68176;SDS011;56478;50.982;7.032;2023-02-26T16:28:32;1.67;;;1.58;;
68176;SDS011;56478;50.982;7.032;2023-02-26T16:31:02;3.75;;;1.35;;
68176;SDS011;56478;50.982;7.032;2023-02-26T16:33:31;1.40;;;1.30;;
68176;SDS011;56478;50.982;7.032;2023-02-26T16:36:05;3.42;;;1.70;;
68176;SDS011;56478;50.982;7.032;2023-02-26T16:38:48;2.97;;;1.40;;
68176;SDS011;56478;50.982;7.032;2023-02-26T16:41:15;1.92;;;1.42;;
68176;SDS011;56478;50.982;7.032;2023-02-26T16:43:49;2.33;;;1.60;;
68176;SDS011;56478;50.982;7.032;2023-02-26T16:46:32;1.50;;;1.40;;
68176;SDS011;56478;50.982;7.032;2023-02-26T16:49:19;1.60;;;1.50;;
68176;SDS011;56478;50.982;7.032;2023-02-26T16:51:46;2.05;;;1.30;;
68176;SDS011;56478;50.982;7.032;2023-02-26T16:54:19;1.60;;;1.33;;
68176;SDS011;56478;50.982;7.032;2023-02-26T16:56:52;2.28;;;1.50;;
68176;SDS011;56478;50.982;7.032;2023-02-26T16:59:25;3.75;;;1.60;;
68176;SDS011;56478;50.982;7.032;2023-02-26T17:02:04;2.00;;;1.80;;
68176;SDS011;56478;50.982;7.032;2023-02-26T17:04:42;2.00;;;1.80;;
68176;SDS011;56478;50.982;7.032;2023-02-26T17:07:30;2.75;;;1.77;;
68176;SDS011;56478;50.982;7.032;2023-02-26T17:10:03;2.65;;;2.10;;
68176;SDS011;56478;50.982;7.032;2023-02-26T17:12:46;3.90;;;1.77;;
68176;SDS011;56478;50.982;7.032;2023-02-26T17:15:35;3.15;;;1.70;;
68176;SDS011;56478;50.982;7.032;2023-02-26T17:18:00;2.72;;;1.77;;
68176;SDS011;56478;50.982;7.032;2023-02-26T17:20:27;2.10;;;1.90;;
68176;SDS011;56478;50.982;7.032;2023-02-26T17:22:53;2.92;;;2.10;;
68176;SDS011;56478;50.982;7.032;2023-02-26T17:25:20;4.03;;;2.05;;
68176;SDS011;56478;50.982;7.032;2023-02-26T17:27:47;2.80;;;2.13;;
68176;SDS011;56478;50.982;7.032;2023-02-26T17:30:14;2.17;;;1.85;;
68176;SDS011;56478;50.982;7.032;2023-02-26T17:32:42;3.33;;;1.95;;
68176;SDS011;56478;50.982;7.032;2023-02-26T17:35:10;2.30;;;2.10;;
68176;SDS011;56478;50.982;7.032;2023-02-26T17:37:37;2.40;;;2.20;;
68176;SDS011;56478;50.982;7.032;2023-02-26T17:40:04;3.45;;;2.30;;
68176;SDS011;56478;50.982;7.032;2023-02-26T17:42:39;2.70;;;2.30;;
68176;SDS011;56478;50.982;7.032;2023-02-26T17:45:04;4.25;;;2.30;;
68176;SDS011;56478;50.982;7.032;2023-02-26T17:47:30;3.47;;;2.33;;
68176;SDS011;56478;50.982;7.032;2023-02-26T17:49:56;4.43;;;2.80;;
68176;SDS011;56478;50.982;7.032;2023-02-26T17:52:21;3.72;;;2.78;;
68176;SDS011;56478;50.982;7.032;2023-02-26T17:54:47;4.53;;;2.80;;
68176;SDS011;56478;50.982;7.032;2023-02-26T17:57:17;2.97;;;2.50;;
68176;SDS011;56478;50.982;7.032;2023-02-26T17:59:45;3.47;;;2.50;;
68176;SDS011;56478;50.982;7.032;2023-02-26T18:02:15;3.95;;;2.67;;
68176;SDS011;56478;50.982;7.032;2023-02-26T18:04:45;3.67;;;2.70;;
68176;SDS011;56478;50.982;7.032;2023-02-26T18:07:12;5.13;;;2.80;;
68176;SDS011;56478;50.982;7.032;2023-02-26T18:09:41;4.30;;;2.95;;
68176;SDS011;56478;50.982;7.032;2023-02-26T18:12:11;3.95;;;3.45;;
68176;SDS011;56478;50.982;7.032;2023-02-26T18:14:38;5.93;;;3.72;;
68176;SDS011;56478;50.982;7.032;2023-02-26T18:17:04;5.22;;;3.78;;
68176;SDS011;56478;50.982;7.032;2023-02-26T18:19:31;3.63;;;3.22;;
68176;SDS011;56478;50.982;7.032;2023-02-26T18:21:56;5.13;;;3.22;;
68176;SDS011;56478;50.982;7.032;2023-02-26T18:24:22;5.10;;;3.33;;
68176;SDS011;56478;50.982;7.032;2023-02-26T18:26:48;5.53;;;3.40;;
68176;SDS011;56478;50.982;7.032;2023-02-26T18:29:13;4.03;;;3.50;;
68176;SDS011;56478;50.982;7.032;2023-02-26T18:31:39;5.85;;;3.70;;
68176;SDS011;56478;50.982;7.032;2023-02-26T18:34:06;5.13;;;3.20;;
68176;SDS011;56478;50.982;7.032;2023-02-26T18:36:33;8.25;;;4.00;;
68176;SDS011;56478;50.982;7.032;2023-02-26T18:39:06;9.40;;;4.17;;
68176;SDS011;56478;50.982;7.032;2023-02-26T18:41:34;9.73;;;5.55;;